Time;durP1;ratioP1;P1;durP2;ratioP2;P2;SDS_P1;SDS_P2;PMS_P1;PMS_P2;Temp;Humidity;BMP_temperature;BMP_pressure;BME280_temperature;BME280_humidity;BME280_pressure;Samples;Min_cycle;Max_cycle;Signal;HPM_P1;HPM_P2
2023/02/11 00:01:59;;;;;;;;;;;;;;;-1.10;71.07;99911.75;5004990;28;19968;-61
2023/02/11 00:07:20;;;;;;;;;;;;;;;-1.13;71.27;99901.44;5003013;28;19933;-61
2023/02/11 00:09:47;;;;;;;;;;;;;;;-1.13;71.07;99907.59;5010247;28;19930;-61
2023/02/11 00:12:18;;;;;;;;;;;;;;;-1.17;71.21;99895.66;5011096;28;19933;-61
2023/02/11 00:14:46;;;;;;;;;;;;;;;-1.22;71.01;99894.56;5002180;28;19930;-60
2023/02/11 00:17:15;;;;;;;;;;;;;;;-1.15;71.08;99890.97;4978138;28;19937;-61
2023/02/11 00:19:43;;;;;;;;;;;;;;;-1.13;71.12;99880.09;5013995;28;20499;-61
2023/02/11 00:22:11;;;;;;;;;;;;;;;-1.12;70.97;99879.94;5005765;28;19926;-61
2023/02/11 00:24:39;;;;;;;;;;;;;;;-1.11;70.95;99872.75;5001467;28;19968;-61
2023/02/11 00:27:08;;;;;;;;;;;;;;;-1.15;70.74;99876.81;5002186;28;20287;-61
2023/02/11 00:30:01;;;;;;;;;;;;;;;-1.18;71.21;99879.84;5001433;28;20284;-61
2023/02/11 00:32:31;;;;;;;;;;;;;;;-1.21;71.10;99873.03;5005217;28;19948;-61
2023/02/11 00:34:59;;;;;;;;;;;;;;;-1.20;71.22;99861.34;5007992;28;19925;-61
2023/02/11 00:37:27;;;;;;;;;;;;;;;-1.15;70.87;99872.28;5013082;28;19926;-61
2023/02/11 00:39:56;;;;;;;;;;;;;;;-1.13;70.66;99867.59;5008612;28;19926;-61
2023/02/11 00:42:23;;;;;;;;;;;;;;;-1.09;70.61;99871.53;4993617;28;19936;-61
2023/02/11 00:44:51;;;;;;;;;;;;;;;-1.08;70.56;99873.19;4993524;28;19933;-60
2023/02/11 00:47:22;;;;;;;;;;;;;;;-1.15;70.58;99872.28;4998269;28;19925;-60
2023/02/11 00:49:52;;;;;;;;;;;;;;;-1.12;70.83;99877.25;4995909;28;19930;-61
2023/02/11 00:53:08;;;;;;;;;;;;;;;-1.10;70.51;99874.41;5010156;28;19937;-61
2023/02/11 00:55:40;;;;;;;;;;;;;;;-1.10;70.84;99880.56;5008410;28;20293;-61
2023/02/11 00:58:32;;;;;;;;;;;;;;;-1.07;70.23;99866.81;4996607;28;19926;-61
2023/02/11 01:01:01;;;;;;;;;;;;;;;-1.09;70.41;99862.72;5003628;28;19926;-61
2023/02/11 01:03:29;;;;;;;;;;;;;;;-0.98;69.99;99861.41;4983307;28;19963;-62
2023/02/11 01:05:58;;;;;;;;;;;;;;;-0.99;70.12;99854.41;4982650;28;20314;-61
2023/02/11 01:08:26;;;;;;;;;;;;;;;-1.00;70.24;99864.25;4989912;28;19932;-61
2023/02/11 01:10:55;;;;;;;;;;;;;;;-1.02;70.12;99857.44;5007834;28;20350;-61
2023/02/11 01:13:23;;;;;;;;;;;;;;;-1.02;70.03;99850.25;4979172;28;19952;-61
2023/02/11 01:15:54;;;;;;;;;;;;;;;-1.02;70.09;99852.94;4997866;28;20417;-61
2023/02/11 01:18:23;;;;;;;;;;;;;;;-1.01;69.88;99853.75;4984338;28;19956;-61
2023/02/11 01:20:51;;;;;;;;;;;;;;;-1.07;70.03;99842.81;5008444;28;20389;-61
2023/02/11 01:23:20;;;;;;;;;;;;;;;-1.06;69.96;99843.69;4991375;28;19934;-61
2023/02/11 01:25:48;;;;;;;;;;;;;;;-1.06;70.00;99844.50;4990300;28;19980;-61
2023/02/11 01:28:17;;;;;;;;;;;;;;;-1.10;69.86;99840.56;5010596;28;19932;-61
2023/02/11 01:30:45;;;;;;;;;;;;;;;-1.04;69.85;99840.81;4980053;28;20029;-61
2023/02/11 01:33:14;;;;;;;;;;;;;;;-0.98;69.75;99840.88;5016241;28;19926;-61
2023/02/11 01:35:42;;;;;;;;;;;;;;;-1.09;70.02;99841.38;4987781;28;19926;-61
2023/02/11 01:38:14;;;;;;;;;;;;;;;-1.01;69.62;99829.75;4989738;28;19925;-61
2023/02/11 01:40:48;;;;;;;;;;;;;;;-0.95;69.31;99831.69;4988466;28;19941;-61
2023/02/11 01:43:16;;;;;;;;;;;;;;;-0.98;69.40;99834.72;4974924;28;19933;-61
2023/02/11 01:45:55;;;;;;;;;;;;;;;-1.03;69.64;99840.63;4969024;28;19963;-61
2023/02/11 01:48:24;;;;;;;;;;;;;;;-1.09;69.83;99849.38;4978500;28;19926;-61
2023/02/11 01:50:53;;;;;;;;;;;;;;;-1.15;69.82;99834.13;4978964;28;19977;-61
2023/02/11 01:58:55;;;;;;;;;;;;;;;-1.19;70.22;99817.66;5015412;28;21120;-61
2023/02/11 02:01:29;;;;;;;;;;;;;;;-1.14;70.05;99809.94;4997437;28;20381;-61
2023/02/11 02:03:57;;;;;;;;;;;;;;;-1.00;69.49;99820.75;5008504;28;19925;-61
2023/02/11 02:06:26;;;;;;;;;;;;;;;-1.06;69.71;99807.16;5011220;28;19925;-61
2023/02/11 02:08:55;;;;;;;;;;;;;;;-1.07;69.52;99810.00;5003241;28;19929;-61
2023/02/11 02:11:25;;;;;;;;;;;;;;;-1.04;69.39;99814.13;4999680;28;20314;-61
2023/02/11 02:13:58;;;;;;;;;;;;;;;-1.00;69.14;99813.56;4987352;28;19925;-60
2023/02/11 02:16:29;;;;;;;;;;;;;;;-0.89;68.61;99806.91;4974958;28;19926;-61
2023/02/11 02:19:05;;;;;;;;;;;;;;;-1.14;69.23;99809.94;5005576;28;20371;-61
2023/02/11 02:21:43;;;;;;;;;;;;;;;-1.03;69.24;99795.25;4989648;28;19929;-61
2023/02/11 02:24:35;;;;;;;;;;;;;;;-1.01;68.91;99803.06;5003011;28;19925;-61
2023/02/11 02:27:23;;;;;;;;;;;;;;;-1.03;68.75;99797.94;4986374;28;19925;-62
2023/02/11 02:29:56;;;;;;;;;;;;;;;-1.03;69.04;99789.09;4989276;28;20378;-61
2023/02/11 02:32:30;;;;;;;;;;;;;;;-1.01;69.23;99787.06;4994855;28;19950;-61
2023/02/11 02:34:58;;;;;;;;;;;;;;;-1.04;68.88;99777.59;5005752;28;20338;-61
2023/02/11 02:37:27;;;;;;;;;;;;;;;-1.11;69.30;99776.72;5007466;28;19925;-61
2023/02/11 02:39:55;;;;;;;;;;;;;;;-1.10;69.15;99768.53;5009249;28;19956;-61
2023/02/11 02:42:23;;;;;;;;;;;;;;;-1.11;69.09;99766.06;5009984;28;19968;-61
2023/02/11 02:44:51;;;;;;;;;;;;;;;-1.10;69.03;99771.19;4992742;28;19937;-61
2023/02/11 02:47:20;;;;;;;;;;;;;;;-1.12;68.82;99765.25;4998976;28;19933;-61
2023/02/11 02:49:49;;;;;;;;;;;;;;;-0.94;68.31;99769.28;5005296;28;19925;-60
2023/02/11 02:52:19;;;;;;;;;;;;;;;-1.32;69.19;99772.19;4999297;28;19925;-61
2023/02/11 02:55:00;;;;;;;;;;;;;;;-1.33;69.59;99778.56;4990550;28;19925;-61
2023/02/11 02:57:32;;;;;;;;;;;;;;;-1.37;69.49;99772.75;5006991;28;19934;-62
2023/02/11 03:00:09;;;;;;;;;;;;;;;-1.27;69.71;99774.31;5008928;28;20295;-61
2023/02/11 03:02:39;;;;;;;;;;;;;;;-1.27;69.38;99769.78;5007692;28;19937;-61
2023/02/11 03:05:10;;;;;;;;;;;;;;;-1.24;69.55;99772.06;5006653;28;20369;-62
2023/02/11 03:07:41;;;;;;;;;;;;;;;-1.23;69.45;99771.03;4986880;28;19933;-61
2023/02/11 03:10:10;;;;;;;;;;;;;;;-1.02;69.10;99780.09;5007858;28;19933;-61
2023/02/11 03:12:38;;;;;;;;;;;;;;;-0.92;68.72;99769.91;5009623;28;19926;-61
2023/02/11 03:15:06;;;;;;;;;;;;;;;-0.91;68.43;99776.91;5011344;28;19926;-61
2023/02/11 03:17:35;;;;;;;;;;;;;;;-0.97;68.73;99783.00;5007537;28;19951;-61
2023/02/11 03:20:04;;;;;;;;;;;;;;;-1.06;69.13;99779.66;5011735;28;20314;-61
2023/02/11 03:22:35;;;;;;;;;;;;;;;-0.89;68.66;99780.22;5006215;28;20386;-61
2023/02/11 03:25:04;;;;;;;;;;;;;;;-0.89;68.63;99775.72;5000999;28;20379;-61
2023/02/11 03:27:33;;;;;;;;;;;;;;;-0.81;68.48;99783.56;4994104;28;20248;-61
2023/02/11 03:30:02;;;;;;;;;;;;;;;-0.74;68.13;99780.97;4999754;28;19930;-61
2023/02/11 03:32:33;;;;;;;;;;;;;;;-0.66;67.94;99785.34;4997444;28;20523;-61
2023/02/11 03:35:03;;;;;;;;;;;;;;;-0.62;67.72;99784.75;5004694;28;19938;-60
2023/02/11 03:37:56;;;;;;;;;;;;;;;-0.57;67.85;99774.34;5017673;28;19972;-61
2023/02/11 03:40:27;;;;;;;;;;;;;;;-0.57;67.94;99777.00;5010334;28;19937;-61
2023/02/11 03:43:21;;;;;;;;;;;;;;;-0.60;67.94;99764.03;5005179;28;20068;-61
2023/02/11 03:45:50;;;;;;;;;;;;;;;-0.59;67.88;99770.19;4993749;28;19930;-61
2023/02/11 03:48:20;;;;;;;;;;;;;;;-0.43;67.53;99763.75;5004626;28;19930;-61
2023/02/11 03:50:49;;;;;;;;;;;;;;;-0.50;67.29;99757.53;5008664;28;19980;-61
2023/02/11 03:53:17;;;;;;;;;;;;;;;-0.58;67.63;99750.50;5012331;28;19951;-61
2023/02/11 03:55:47;;;;;;;;;;;;;;;-0.66;68.08;99753.31;5003542;28;19936;-60
2023/02/11 03:58:19;;;;;;;;;;;;;;;-0.67;68.12;99760.50;4978853;28;19925;-61
2023/02/11 04:00:47;;;;;;;;;;;;;;;-0.69;68.31;99762.53;5001390;28;20370;-61
2023/02/11 04:03:17;;;;;;;;;;;;;;;-0.68;68.15;99750.84;5007409;28;20382;-61
2023/02/11 04:05:45;;;;;;;;;;;;;;;-0.66;68.30;99743.47;5006145;28;20410;-60
2023/02/11 04:08:13;;;;;;;;;;;;;;;-0.67;68.26;99746.31;5008124;28;20019;-60
2023/02/11 04:10:43;;;;;;;;;;;;;;;-0.65;68.39;99745.09;4993062;28;19929;-61
2023/02/11 04:13:13;;;;;;;;;;;;;;;-0.61;68.39;99740.22;5017630;28;19926;-62
2023/02/11 04:15:41;;;;;;;;;;;;;;;-0.61;68.42;99756.22;5001067;28;19937;-60
2023/02/11 04:18:08;;;;;;;;;;;;;;;-0.60;68.56;99763.22;5010400;28;19925;-60
2023/02/11 04:20:36;;;;;;;;;;;;;;;-0.71;68.71;99755.72;5006421;28;19932;-60
2023/02/11 04:25:56;;;;;;;;;;;;;;;-0.80;69.53;99741.69;5004751;28;19926;-60
2023/02/11 04:28:28;;;;;;;;;;;;;;;-0.79;69.49;99740.69;5011459;28;19929;-60
2023/02/11 04:30:56;;;;;;;;;;;;;;;-0.75;69.49;99719.75;4988898;28;19926;-60
2023/02/11 04:33:24;;;;;;;;;;;;;;;-0.68;69.46;99724.16;4992532;28;19934;-61
2023/02/11 04:35:52;;;;;;;;;;;;;;;-0.65;69.25;99702.41;5013540;28;19945;-61
2023/02/11 04:38:22;;;;;;;;;;;;;;;-0.64;69.47;99696.06;5010192;28;19929;-62
2023/02/11 04:40:59;;;;;;;;;;;;;;;-0.50;69.18;99704.13;5004330;28;19981;-61
2023/02/11 04:43:28;;;;;;;;;;;;;;;-0.43;69.10;99715.69;5003064;28;19925;-61
2023/02/11 04:45:57;;;;;;;;;;;;;;;-0.44;68.66;99711.38;4995865;28;19932;-61
2023/02/11 04:48:26;;;;;;;;;;;;;;;-0.44;68.75;99698.00;5004979;28;19925;-61
2023/02/11 04:50:53;;;;;;;;;;;;;;;-0.43;69.09;99687.13;5008931;28;19936;-61
2023/02/11 04:53:22;;;;;;;;;;;;;;;-0.39;68.95;99696.41;5012337;28;19925;-61
2023/02/11 04:55:50;;;;;;;;;;;;;;;-0.30;68.80;99699.75;5002999;28;19925;-64
2023/02/11 04:58:19;;;;;;;;;;;;;;;-0.35;69.10;99691.50;5011708;28;19925;-61
2023/02/11 05:00:50;;;;;;;;;;;;;;;-0.27;68.94;99684.16;5004903;28;19925;-61
2023/02/11 05:03:18;;;;;;;;;;;;;;;-0.23;68.70;99681.91;5006071;28;19933;-60
2023/02/11 05:05:45;;;;;;;;;;;;;;;-0.26;68.82;99690.31;5004199;28;19934;-63
2023/02/11 05:08:13;;;;;;;;;;;;;;;-0.32;68.87;99702.63;5010806;28;20456;-61
2023/02/11 05:10:44;;;;;;;;;;;;;;;-0.37;69.15;99697.03;5001524;28;19948;-60
2023/02/11 05:13:11;;;;;;;;;;;;;;;-0.31;69.19;99690.09;5003510;28;19933;-60
2023/02/11 05:15:39;;;;;;;;;;;;;;;-0.23;69.12;99691.75;5001269;28;20185;-60
2023/02/11 05:18:09;;;;;;;;;;;;;;;-0.25;69.07;99702.66;5003264;28;19926;-61
2023/02/11 05:20:37;;;;;;;;;;;;;;;-0.27;69.34;99720.72;5005928;28;19925;-61
2023/02/11 05:23:31;;;;;;;;;;;;;;;-0.23;69.17;99705.13;5000501;28;19932;-61
2023/02/11 05:25:59;;;;;;;;;;;;;;;-0.22;69.26;99704.09;5010940;28;19929;-61
2023/02/11 05:28:27;;;;;;;;;;;;;;;-0.20;69.22;99694.06;4990408;28;19926;-60
2023/02/11 05:30:55;;;;;;;;;;;;;;;-0.20;69.28;99688.72;5004076;28;19930;-61
2023/02/11 05:33:25;;;;;;;;;;;;;;;-0.20;69.18;99678.03;5000253;28;20013;-61
2023/02/11 05:35:52;;;;;;;;;;;;;;;-0.16;69.37;99685.44;4993684;28;19926;-61
2023/02/11 05:38:21;;;;;;;;;;;;;;;-0.16;69.45;99693.47;4988787;28;19965;-62
2023/02/11 05:40:49;;;;;;;;;;;;;;;-0.10;69.47;99689.19;5008020;28;20400;-60
2023/02/11 05:43:17;;;;;;;;;;;;;;;0.00;69.31;99681.63;4987501;28;19930;-60
2023/02/11 05:45:45;;;;;;;;;;;;;;;0.08;69.44;99675.25;4998801;28;19933;-60
2023/02/11 05:48:13;;;;;;;;;;;;;;;0.11;69.40;99669.53;5001371;28;19925;-60
2023/02/11 05:50:42;;;;;;;;;;;;;;;0.19;69.13;99672.00;4997654;28;19925;-60
2023/02/11 05:53:11;;;;;;;;;;;;;;;0.23;69.02;99673.25;5003967;28;19984;-60
2023/02/11 05:55:38;;;;;;;;;;;;;;;0.22;68.94;99675.13;5004526;28;19925;-60
2023/02/11 05:58:06;;;;;;;;;;;;;;;0.27;69.13;99690.56;4985652;28;20352;-60
2023/02/11 06:01:01;;;;;;;;;;;;;;;0.39;68.90;99698.81;4975087;28;19988;-60
2023/02/11 06:03:30;;;;;;;;;;;;;;;0.33;68.84;99688.94;4976250;28;19977;-61
2023/02/11 06:05:59;;;;;;;;;;;;;;;0.35;69.17;99693.03;4962386;28;19925;-60
2023/02/11 06:08:26;;;;;;;;;;;;;;;0.34;69.09;99690.56;4980227;28;20306;-60
2023/02/11 06:10:54;;;;;;;;;;;;;;;0.33;69.08;99681.72;4983860;28;20331;-60
2023/02/11 06:13:22;;;;;;;;;;;;;;;0.30;69.09;99671.41;4991388;28;19929;-61
2023/02/11 06:15:55;;;;;;;;;;;;;;;0.28;69.63;99664.63;4975642;28;19926;-60
2023/02/11 06:18:23;;;;;;;;;;;;;;;0.22;69.75;99661.75;4989155;28;20379;-60
2023/02/11 06:20:52;;;;;;;;;;;;;;;0.21;70.07;99670.78;4989819;28;19925;-60
2023/02/11 06:23:23;;;;;;;;;;;;;;;0.19;70.11;99672.00;4970133;28;20628;-60
2023/02/11 06:25:54;;;;;;;;;;;;;;;0.04;70.43;99669.47;4987651;28;19996;-60
2023/02/11 06:28:21;;;;;;;;;;;;;;;0.02;70.68;99665.38;4987587;28;19930;-60
2023/02/11 06:30:50;;;;;;;;;;;;;;;0.00;70.66;99652.22;4965334;28;19940;-60
2023/02/11 06:33:18;;;;;;;;;;;;;;;0.02;70.89;99657.38;4996733;28;19926;-60
2023/02/11 06:35:45;;;;;;;;;;;;;;;0.12;70.44;99655.13;4984420;28;19941;-60
2023/02/11 06:38:14;;;;;;;;;;;;;;;0.15;70.35;99665.41;4999501;28;20177;-60
2023/02/11 06:41:07;;;;;;;;;;;;;;;0.17;70.69;99664.19;4998563;28;19930;-60
2023/02/11 06:43:36;;;;;;;;;;;;;;;0.14;70.58;99661.09;4988690;28;20331;-61
2023/02/11 06:46:04;;;;;;;;;;;;;;;0.10;70.75;99657.97;4986474;28;20016;-60
2023/02/11 06:48:32;;;;;;;;;;;;;;;0.10;70.88;99654.50;4986933;28;19941;-60
2023/02/11 06:51:03;;;;;;;;;;;;;;;0.24;70.63;99669.56;4996261;28;19929;-60
2023/02/11 06:53:31;;;;;;;;;;;;;;;0.22;70.80;99677.78;4983469;28;19925;-60
2023/02/11 06:56:02;;;;;;;;;;;;;;;0.24;70.70;99685.59;4981951;28;20446;-60
2023/02/11 06:58:31;;;;;;;;;;;;;;;0.24;70.62;99681.06;4966329;28;20367;-61
2023/02/11 07:01:05;;;;;;;;;;;;;;;0.33;70.62;99695.09;4977221;28;20166;-58
2023/02/11 07:03:33;;;;;;;;;;;;;;;0.45;70.26;99698.81;4972977;28;19976;-57
2023/02/11 07:06:02;;;;;;;;;;;;;;;0.58;69.88;99694.50;4981526;28;20395;-58
2023/02/11 07:08:30;;;;;;;;;;;;;;;0.58;70.08;99702.53;4972131;28;19933;-57
2023/02/11 07:10:58;;;;;;;;;;;;;;;0.68;70.01;99702.97;4978482;28;19926;-58
2023/02/11 07:13:25;;;;;;;;;;;;;;;0.76;69.19;99708.16;4987872;28;19926;-57
2023/02/11 07:15:54;;;;;;;;;;;;;;;0.73;69.03;99704.00;4970523;28;20426;-59
2023/02/11 07:18:23;;;;;;;;;;;;;;;0.83;69.08;99694.78;4987746;28;19926;-57
2023/02/11 07:20:51;;;;;;;;;;;;;;;0.83;68.68;99703.63;4988631;28;19925;-57
2023/02/11 07:23:20;;;;;;;;;;;;;;;0.83;69.01;99690.25;4988690;28;19934;-57
2023/02/11 07:25:48;;;;;;;;;;;;;;;0.78;68.86;99698.06;4985488;28;19929;-57
2023/02/11 07:28:17;;;;;;;;;;;;;;;0.81;69.26;99691.50;4988507;28;19952;-57
2023/02/11 07:30:45;;;;;;;;;;;;;;;0.94;68.91;99688.81;4959917;28;19926;-57
2023/02/11 07:33:39;;;;;;;;;;;;;;;1.11;68.04;99691.88;4980754;28;20345;-58
2023/02/11 07:36:08;;;;;;;;;;;;;;;1.21;67.77;99690.44;4991927;28;19937;-57
2023/02/11 07:38:36;;;;;;;;;;;;;;;1.29;67.82;99695.59;4969271;28;20502;-57
2023/02/11 07:41:05;;;;;;;;;;;;;;;1.45;67.83;99699.72;4987902;28;19937;-58
2023/02/11 07:43:33;;;;;;;;;;;;;;;1.60;66.88;99679.88;4986709;28;19963;-57
2023/02/11 07:46:27;;;;;;;;;;;;;;;1.66;66.67;99684.44;4979533;28;19930;-57
2023/02/11 07:48:57;;;;;;;;;;;;;;;1.77;66.57;99694.50;4988235;28;19933;-57
2023/02/11 07:51:25;;;;;;;;;;;;;;;1.78;66.27;99699.63;4994136;28;19990;-57
2023/02/11 07:53:54;;;;;;;;;;;;;;;1.80;66.47;99710.97;4991634;28;20372;-58
2023/02/11 07:59:38;;;;;;;;;;;;;;;2.01;65.78;99704.50;5012563;28;19951;-57
2023/02/11 08:02:06;;;;;;;;;;;;;;;2.10;65.59;99705.09;4981626;28;19933;-57
2023/02/11 08:04:36;;;;;;;;;;;;;;;2.17;66.30;99718.47;4993826;28;20040;-57
2023/02/11 08:07:03;;;;;;;;;;;;;;;2.32;65.45;99725.22;5012626;28;19996;-57
2023/02/11 08:09:31;;;;;;;;;;;;;;;2.40;65.30;99734.91;5012265;28;20001;-57
2023/02/11 08:12:01;;;;;;;;;;;;;;;2.40;65.04;99737.56;5013086;28;19929;-58
2023/02/11 08:14:31;;;;;;;;;;;;;;;2.42;65.08;99737.34;5009782;28;19929;-59
2023/02/11 08:16:59;;;;;;;;;;;;;;;2.52;65.10;99732.34;5002840;28;20375;-58
2023/02/11 08:19:52;;;;;;;;;;;;;;;2.49;65.52;99733.59;5007497;28;20394;-58
2023/02/11 08:22:45;;;;;;;;;;;;;;;2.51;65.67;99710.06;5015661;28;19948;-59
2023/02/11 08:25:13;;;;;;;;;;;;;;;2.65;64.86;99715.34;4995148;28;19933;-58
2023/02/11 08:27:41;;;;;;;;;;;;;;;2.67;64.93;99718.66;5008018;28;19936;-58
2023/02/11 08:30:10;;;;;;;;;;;;;;;2.79;64.99;99708.88;5002731;28;19933;-58
2023/02/11 08:32:38;;;;;;;;;;;;;;;2.83;64.67;99702.84;4986236;28;19929;-58
2023/02/11 08:35:07;;;;;;;;;;;;;;;2.84;65.06;99709.88;4990788;28;19945;-59
2023/02/11 08:37:36;;;;;;;;;;;;;;;2.97;64.48;99708.13;5008802;28;19925;-58
2023/02/11 08:43:22;;;;;;;;;;;;;;;3.15;63.96;99714.41;5017352;28;20264;-58
2023/02/11 08:45:53;;;;;;;;;;;;;;;3.19;63.88;99703.19;5019089;28;19925;-58
2023/02/11 08:48:21;;;;;;;;;;;;;;;3.20;64.20;99703.00;5011979;28;19925;-58
2023/02/11 08:50:49;;;;;;;;;;;;;;;3.22;64.23;99716.19;5012541;28;20839;-58
2023/02/11 08:53:17;;;;;;;;;;;;;;;3.36;63.79;99717.75;5004549;28;20016;-57
2023/02/11 08:55:49;;;;;;;;;;;;;;;3.39;63.53;99715.41;5022688;28;20286;-59
2023/02/11 08:58:18;;;;;;;;;;;;;;;3.41;63.14;99709.84;5003041;28;19933;-58
2023/02/11 09:00:46;;;;;;;;;;;;;;;3.44;63.48;99720.13;4989956;28;19937;-58
2023/02/11 09:03:16;;;;;;;;;;;;;;;3.42;63.86;99724.91;5014792;28;20372;-57
2023/02/11 09:05:46;;;;;;;;;;;;;;;3.42;63.03;99715.00;5015184;28;19933;-57
2023/02/11 09:08:14;;;;;;;;;;;;;;;3.52;63.68;99713.69;5016159;28;19932;-57
2023/02/11 09:10:42;;;;;;;;;;;;;;;3.61;63.81;99710.47;5001987;28;19952;-58
2023/02/11 09:13:11;;;;;;;;;;;;;;;3.56;63.42;99699.53;5017730;28;19925;-59
2023/02/11 09:15:39;;;;;;;;;;;;;;;3.68;63.52;99703.16;5007064;28;19933;-57
2023/02/11 09:18:07;;;;;;;;;;;;;;;3.69;63.20;99701.28;4998175;28;20378;-58
2023/02/11 09:20:35;;;;;;;;;;;;;;;3.79;62.94;99685.47;5013066;28;19929;-58
2023/02/11 09:23:27;;;;;;;;;;;;;;;3.84;63.29;99682.94;5010172;28;19932;-58
2023/02/11 09:25:56;;;;;;;;;;;;;;;3.91;63.10;99690.94;5010457;28;19944;-57
2023/02/11 09:28:25;;;;;;;;;;;;;;;3.96;62.80;99690.25;5009931;28;20391;-58
2023/02/11 09:33:52;;;;;;;;;;;;;;;3.85;63.38;99683.75;5017566;28;19997;-58
2023/02/11 09:36:20;;;;;;;;;;;;;;;3.75;63.03;99702.28;5025789;28;20314;-59
2023/02/11 09:38:49;;;;;;;;;;;;;;;3.72;63.86;99710.78;5019178;28;20223;-58
2023/02/11 09:41:25;;;;;;;;;;;;;;;3.80;64.05;99718.56;5021209;28;19932;-60
2023/02/11 09:43:56;;;;;;;;;;;;;;;3.89;63.71;99704.59;5016319;28;19926;-58
2023/02/11 09:46:25;;;;;;;;;;;;;;;4.07;63.61;99713.72;5019561;28;20406;-59
2023/02/11 09:48:53;;;;;;;;;;;;;;;4.23;62.70;99712.28;5015503;28;20006;-57
2023/02/11 09:51:24;;;;;;;;;;;;;;;4.49;62.23;99711.94;5018576;28;19971;-57
2023/02/11 09:53:54;;;;;;;;;;;;;;;4.66;62.02;99701.34;5015318;28;20374;-57
2023/02/11 09:56:25;;;;;;;;;;;;;;;4.83;61.42;99705.03;5019694;28;19940;-57
2023/02/11 09:58:54;;;;;;;;;;;;;;;4.69;61.31;99704.41;5013097;28;20022;-58
2023/02/11 10:01:26;;;;;;;;;;;;;;;4.53;61.93;99707.75;5003469;28;19926;-58
2023/02/11 10:04:02;;;;;;;;;;;;;;;4.48;62.14;99710.31;5009023;28;19937;-58
2023/02/11 10:06:37;;;;;;;;;;;;;;;4.51;62.53;99704.44;5008063;28;19925;-66
2023/02/11 10:09:08;;;;;;;;;;;;;;;4.69;61.72;99712.50;4991622;28;19929;-57
2023/02/11 10:11:38;;;;;;;;;;;;;;;4.95;61.93;99716.69;5009991;28;19933;-57
2023/02/11 10:14:09;;;;;;;;;;;;;;;5.16;61.31;99717.97;5011001;28;19934;-58
2023/02/11 10:16:42;;;;;;;;;;;;;;;5.22;61.07;99716.25;5009464;28;19926;-57
2023/02/11 10:19:14;;;;;;;;;;;;;;;5.22;60.76;99718.97;5010392;28;19925;-57
2023/02/11 10:21:45;;;;;;;;;;;;;;;5.22;61.19;99721.66;4995559;28;19925;-57
2023/02/11 10:24:14;;;;;;;;;;;;;;;5.25;60.95;99724.69;5014211;28;19925;-57
2023/02/11 10:26:42;;;;;;;;;;;;;;;5.41;60.52;99722.38;5006982;28;20298;-58
2023/02/11 10:29:12;;;;;;;;;;;;;;;5.56;60.41;99713.81;5012218;28;19933;-57
2023/02/11 10:31:42;;;;;;;;;;;;;;;5.58;60.51;99720.59;4992461;28;20025;-57
2023/02/11 10:37:28;;;;;;;;;;;;;;;5.63;61.06;99715.34;5013483;28;20405;-57
2023/02/11 10:39:55;;;;;;;;;;;;;;;5.73;60.78;99712.88;5020209;28;20378;-57
2023/02/11 10:42:24;;;;;;;;;;;;;;;5.78;60.96;99710.28;5013275;28;19926;-58
2023/02/11 10:44:55;;;;;;;;;;;;;;;5.72;61.45;99707.72;5019251;28;20289;-57
2023/02/11 10:47:25;;;;;;;;;;;;;;;5.79;61.04;99714.63;5010435;28;19949;-57
2023/02/11 10:49:53;;;;;;;;;;;;;;;5.73;61.06;99718.25;4996590;28;20429;-58
2023/02/11 10:52:22;;;;;;;;;;;;;;;5.71;61.69;99708.78;5005294;28;19937;-57
2023/02/11 10:55:16;;;;;;;;;;;;;;;5.75;61.48;99704.53;5019261;28;19929;-58
2023/02/11 10:57:50;;;;;;;;;;;;;;;5.69;61.10;99695.50;5011032;28;19926;-57
2023/02/11 11:00:27;;;;;;;;;;;;;;;5.79;61.26;99711.94;4986889;28;19926;-57
2023/02/11 11:02:58;;;;;;;;;;;;;;;5.87;61.17;99708.06;5012704;28;19937;-57
2023/02/11 11:05:29;;;;;;;;;;;;;;;5.92;61.02;99705.50;5010155;28;19925;-57
2023/02/11 11:07:57;;;;;;;;;;;;;;;5.89;60.93;99694.34;4992272;28;19937;-57
2023/02/11 11:10:26;;;;;;;;;;;;;;;5.85;61.44;99703.94;5008085;28;19932;-57
2023/02/11 11:12:54;;;;;;;;;;;;;;;5.83;61.31;99706.06;5011486;28;19925;-57
2023/02/11 11:15:23;;;;;;;;;;;;;;;5.83;61.58;99724.94;5006576;28;20594;-58
2023/02/11 11:17:51;;;;;;;;;;;;;;;5.69;61.85;99710.88;5022172;28;19926;-57
2023/02/11 11:20:22;;;;;;;;;;;;;;;5.63;62.27;99701.84;5006745;28;19949;-58
2023/02/11 11:22:50;;;;;;;;;;;;;;;5.63;62.29;99701.03;5005022;28;20414;-57
2023/02/11 11:25:25;;;;;;;;;;;;;;;5.65;62.43;99709.72;5010004;28;19933;-58
2023/02/11 11:27:54;;;;;;;;;;;;;;;5.68;62.29;99703.84;5006005;28;19949;-57
2023/02/11 11:30:23;;;;;;;;;;;;;;;5.75;62.31;99699.13;4992994;28;19941;-57
2023/02/11 11:32:51;;;;;;;;;;;;;;;5.77;62.05;99711.34;5013867;28;20383;-58
2023/02/11 11:38:17;;;;;;;;;;;;;;;5.89;62.11;99705.94;5012114;28;19976;-57
2023/02/11 11:40:45;;;;;;;;;;;;;;;5.83;61.94;99708.78;5014137;28;19969;-57
2023/02/11 11:43:19;;;;;;;;;;;;;;;5.86;62.14;99705.59;4990353;28;19926;-57
2023/02/11 11:45:54;;;;;;;;;;;;;;;5.76;61.96;99703.50;5011612;28;19929;-57
2023/02/11 11:48:24;;;;;;;;;;;;;;;5.82;62.42;99705.25;5022183;28;19959;-58
2023/02/11 11:50:53;;;;;;;;;;;;;;;5.83;62.25;99700.69;5016061;28;20617;-57
2023/02/11 11:53:23;;;;;;;;;;;;;;;5.83;62.46;99695.28;4995831;28;19964;-57
2023/02/11 11:55:56;;;;;;;;;;;;;;;5.91;62.02;99693.09;5011823;28;19925;-57
2023/02/11 11:58:27;;;;;;;;;;;;;;;5.87;62.16;99702.66;5009828;28;19925;-58
2023/02/11 12:00:57;;;;;;;;;;;;;;;5.69;62.33;99690.13;5007906;28;19926;-61
2023/02/11 12:03:42;;;;;;;;;;;;;;;5.68;62.50;99699.28;4992323;28;19933;-57
2023/02/11 12:06:18;;;;;;;;;;;;;;;5.63;62.74;99695.63;4993930;28;19925;-57
2023/02/11 12:08:50;;;;;;;;;;;;;;;5.72;62.83;99697.75;4998299;28;19929;-58
2023/02/11 12:11:22;;;;;;;;;;;;;;;5.75;62.85;99689.19;5009401;28;19933;-58
2023/02/11 12:13:54;;;;;;;;;;;;;;;5.86;62.61;99697.50;5011684;28;20366;-58
2023/02/11 12:16:25;;;;;;;;;;;;;;;5.91;62.40;99697.59;5004927;28;19940;-57
2023/02/11 12:19:00;;;;;;;;;;;;;;;5.92;62.01;99691.22;5012033;28;19925;-58
2023/02/11 12:21:34;;;;;;;;;;;;;;;5.97;61.85;99696.72;5012244;28;19925;-58
2023/02/11 12:24:06;;;;;;;;;;;;;;;6.03;62.01;99701.16;4990180;28;19930;-58
2023/02/11 12:26:36;;;;;;;;;;;;;;;5.98;61.67;99692.94;4991018;28;19929;-58
2023/02/11 12:29:06;;;;;;;;;;;;;;;6.03;62.17;99691.19;5016740;28;20535;-60
2023/02/11 12:31:38;;;;;;;;;;;;;;;5.96;62.03;99697.75;5006992;28;20408;-57
2023/02/11 12:34:23;;;;;;;;;;;;;;;5.91;62.16;99687.69;5017783;28;19925;-57
2023/02/11 12:36:56;;;;;;;;;;;;;;;5.93;62.95;99685.56;5000000;28;19964;-57
2023/02/11 12:39:27;;;;;;;;;;;;;;;5.95;62.44;99679.91;5013703;28;19926;-57
2023/02/11 12:44:55;;;;;;;;;;;;;;;5.87;62.59;99682.97;5007058;28;20382;-57
2023/02/11 12:47:25;;;;;;;;;;;;;;;5.91;62.74;99673.31;5010955;28;20375;-57
2023/02/11 12:56:21;;;;;;;;;;;;;;;5.90;62.33;99669.81;5006727;28;19926;-58
2023/02/11 12:58:50;;;;;;;;;;;;;;;5.87;62.56;99680.28;5011020;28;20369;-58
2023/02/11 13:01:20;;;;;;;;;;;;;;;5.90;62.73;99674.38;4990666;28;20390;-58
2023/02/11 13:03:48;;;;;;;;;;;;;;;5.99;62.37;99667.59;4991636;28;19925;-58
2023/02/11 13:06:17;;;;;;;;;;;;;;;6.02;62.15;99664.44;5011797;28;19925;-59
2023/02/11 13:08:47;;;;;;;;;;;;;;;6.08;62.06;99658.09;5012734;28;20353;-60
2023/02/11 13:11:15;;;;;;;;;;;;;;;6.02;62.56;99656.34;5010946;28;19925;-58
2023/02/11 13:13:47;;;;;;;;;;;;;;;6.01;62.25;99647.41;5029848;28;19953;-58
2023/02/11 13:16:17;;;;;;;;;;;;;;;6.01;62.32;99649.28;5012709;28;19925;-59
2023/02/11 13:18:48;;;;;;;;;;;;;;;5.97;62.59;99648.16;4999387;28;20354;-59
2023/02/11 13:21:26;;;;;;;;;;;;;;;6.07;62.00;99647.50;5000880;28;19925;-58
2023/02/11 13:23:58;;;;;;;;;;;;;;;6.16;61.93;99649.59;5012606;28;19933;-59
2023/02/11 13:26:29;;;;;;;;;;;;;;;6.21;60.24;99638.91;5012461;28;19926;-61
2023/02/11 13:29:01;;;;;;;;;;;;;;;6.15;60.14;99639.06;5006328;28;20375;-58
2023/02/11 13:31:30;;;;;;;;;;;;;;;6.10;60.16;99637.06;5009865;28;19926;-62
2023/02/11 13:33:59;;;;;;;;;;;;;;;6.10;59.73;99647.03;5015225;28;19933;-58
2023/02/11 13:36:27;;;;;;;;;;;;;;;6.08;60.08;99644.59;5011777;28;19925;-58
2023/02/11 13:39:20;;;;;;;;;;;;;;;6.12;59.91;99645.72;4983934;28;19957;-60
2023/02/11 13:41:50;;;;;;;;;;;;;;;6.15;59.92;99649.84;4998376;28;19968;-59
2023/02/11 13:44:47;;;;;;;;;;;;;;;6.18;60.08;99654.75;5004471;28;20006;-58
2023/02/11 13:47:22;;;;;;;;;;;;;;;6.16;60.29;99662.28;5014999;28;19926;-58
2023/02/11 13:49:51;;;;;;;;;;;;;;;6.16;59.89;99657.69;4994288;28;19930;-58